Time;durP1;ratioP1;P1;durP2;ratioP2;P2;SDS_P1;SDS_P2;PMS_P1;PMS_P2;Temp;Humidity;BMP_temperature;BMP_pressure;BME280_temperature;BME280_humidity;BME280_pressure;Samples;Min_cycle;Max_cycle;Signal;HPM_P1;HPM_P2
2022/08/18 00:01:08;;;;;;;105.82;80.53;;;18.50;99.90;;;;;;5054546;28;20485;-62
2022/08/18 00:03:33;;;;;;;123.22;77.65;;;18.50;99.90;;;;;;5054883;28;20032;-62
2022/08/18 00:05:59;;;;;;;113.43;77.25;;;18.50;99.90;;;;;;5054726;28;20041;-62
2022/08/18 00:08:27;;;;;;;111.45;75.97;;;18.50;99.90;;;;;;5054560;28;20029;-63
2022/08/18 00:10:54;;;;;;;101.18;76.47;;;18.60;99.90;;;;;;5054269;28;20025;-62
2022/08/18 00:13:20;;;;;;;99.88;76.25;;;18.60;99.90;;;;;;5054316;28;20059;-63
2022/08/18 00:15:45;;;;;;;97.78;73.65;;;18.60;99.90;;;;;;5054266;28;20025;-62
2022/08/18 00:18:11;;;;;;;99.22;73.07;;;18.50;99.90;;;;;;5054677;28;20093;-62
2022/08/18 00:20:36;;;;;;;90.50;71.55;;;18.50;99.90;;;;;;5054126;28;20029;-62
2022/08/18 00:23:02;;;;;;;89.45;70.20;;;18.40;99.90;;;;;;5054144;28;20021;-63
2022/08/18 00:25:28;;;;;;;89.07;71.45;;;18.40;99.90;;;;;;5054219;28;20021;-62
2022/08/18 00:27:53;;;;;;;88.53;68.90;;;18.30;99.90;;;;;;5054026;28;20029;-63
2022/08/18 00:30:21;;;;;;;91.47;72.07;;;18.30;99.90;;;;;;5053935;28;20028;-62
2022/08/18 00:32:55;;;;;;;90.35;72.00;;;18.30;99.90;;;;;;5053882;28;20036;-62
2022/08/18 00:35:26;;;;;;;93.60;71.65;;;18.30;99.90;;;;;;5053794;28;20029;-62
2022/08/18 00:37:53;;;;;;;97.55;74.43;;;18.30;99.90;;;;;;5054108;28;20032;-62
2022/08/18 00:40:24;;;;;;;102.50;73.72;;;18.30;99.90;;;;;;5053764;28;20091;-63
2022/08/18 00:42:54;;;;;;;101.88;77.70;;;18.40;99.90;;;;;;5053756;28;20445;-63
2022/08/18 00:45:27;;;;;;;115.13;79.00;;;18.40;99.90;;;;;;5053862;28;20017;-63
2022/08/18 00:47:53;;;;;;;104.68;77.40;;;18.50;99.90;;;;;;5052479;28;20056;-63
2022/08/18 00:50:27;;;;;;;100.00;73.47;;;18.40;99.90;;;;;;5053495;28;20525;-63
2022/08/18 00:52:58;;;;;;;117.28;79.32;;;18.30;99.90;;;;;;5053516;28;20108;-63
2022/08/18 00:55:26;;;;;;;112.25;80.28;;;18.40;99.90;;;;;;5053543;28;20029;-62
2022/08/18 00:58:00;;;;;;;102.20;76.82;;;18.40;99.90;;;;;;5053230;28;20490;-63
2022/08/18 01:00:25;;;;;;;94.53;69.20;;;18.30;99.90;;;;;;5053362;28;20027;-62
2022/08/18 01:02:55;;;;;;;91.95;68.55;;;18.20;99.90;;;;;;5053392;28;20451;-62
2022/08/18 01:05:39;;;;;;;100.22;72.53;;;18.10;99.90;;;;;;5053081;28;20029;-63
2022/08/18 01:08:10;;;;;;;92.72;70.82;;;18.10;99.90;;;;;;5054167;28;20432;-63
2022/08/18 01:10:36;;;;;;;87.70;70.53;;;18.10;99.90;;;;;;5052730;28;20044;-62
2022/08/18 01:13:02;;;;;;;87.65;71.43;;;18.10;99.90;;;;;;5053154;28;20040;-63
2022/08/18 01:15:28;;;;;;;91.45;72.03;;;18.00;99.90;;;;;;5053069;28;20021;-62
2022/08/18 01:23:28;;;;;;;94.38;72.35;;;18.10;99.90;;;;;;5052790;28;20025;-62
2022/08/18 01:26:00;;;;;;;94.22;73.03;;;18.20;99.90;;;;;;5052743;28;20447;-62
2022/08/18 01:28:33;;;;;;;101.00;76.95;;;18.20;99.90;;;;;;5052925;28;20025;-62
2022/08/18 01:31:00;;;;;;;129.77;80.78;;;18.20;99.90;;;;;;5052621;28;20032;-62
2022/08/18 01:33:31;;;;;;;112.15;80.57;;;18.30;99.90;;;;;;5052672;28;20033;-63
2022/08/18 01:36:00;;;;;;;116.93;82.05;;;18.50;99.90;;;;;;5053134;28;20428;-62
2022/08/18 01:38:26;;;;;;;117.70;81.93;;;18.60;99.90;;;;;;5051331;28;20037;-62
2022/08/18 01:40:53;;;;;;;118.55;81.88;;;18.60;99.90;;;;;;5052963;28;20370;-63
2022/08/18 01:43:19;;;;;;;116.88;80.65;;;18.70;99.90;;;;;;5051179;28;20040;-62
2022/08/18 01:45:46;;;;;;;113.03;79.18;;;18.70;99.90;;;;;;5051327;28;20408;-62
2022/08/18 01:48:12;;;;;;;118.47;81.82;;;18.70;99.90;;;;;;5052413;28;20032;-62
2022/08/18 01:50:40;;;;;;;109.40;76.72;;;18.70;99.90;;;;;;5052332;28;20025;-62
2022/08/18 01:53:06;;;;;;;97.88;73.28;;;18.60;99.90;;;;;;5052431;28;20033;-62
2022/08/18 01:55:36;;;;;;;100.68;74.45;;;18.50;99.90;;;;;;5052016;28;20496;-62
2022/08/18 01:58:01;;;;;;;120.78;78.97;;;18.40;99.90;;;;;;5052267;28;20048;-63
2022/08/18 02:00:28;;;;;;;111.10;78.75;;;18.50;99.90;;;;;;5051969;28;20025;-63
2022/08/18 02:02:55;;;;;;;104.15;73.97;;;18.40;99.90;;;;;;5052770;28;20498;-62
2022/08/18 02:05:32;;;;;;;112.18;77.70;;;18.30;99.90;;;;;;5051808;28;20056;-63
2022/08/18 02:07:58;;;;;;;143.18;81.63;;;18.30;99.90;;;;;;5052324;28;20029;-63
2022/08/18 02:10:24;;;;;;;187.85;84.28;;;18.30;99.90;;;;;;5051880;28;20025;-63
2022/08/18 02:12:49;;;;;;;153.95;87.53;;;18.30;99.90;;;;;;5052310;28;20524;-62
2022/08/18 02:15:15;;;;;;;173.95;90.50;;;18.50;99.90;;;;;;5052280;28;20025;-63
2022/08/18 02:17:43;;;;;;;136.15;85.30;;;18.60;99.90;;;;;;5051720;28;20394;-63
2022/08/18 02:20:13;;;;;;;193.10;87.50;;;18.70;99.90;;;;;;5051658;28;20021;-62
2022/08/18 02:22:39;;;;;;;164.27;86.43;;;18.70;99.90;;;;;;5051238;28;20067;-63
2022/08/18 02:25:05;;;;;;;135.02;83.78;;;18.70;99.90;;;;;;5052411;28;20052;-62
2022/08/18 02:27:31;;;;;;;162.98;78.35;;;18.60;99.90;;;;;;5051433;28;20021;-63
2022/08/18 02:29:59;;;;;;;251.20;79.00;;;18.30;99.90;;;;;;5052176;28;20083;-62
2022/08/18 02:32:25;;;;;;;208.32;84.13;;;18.10;99.90;;;;;;5051843;28;20036;-63
2022/08/18 02:34:51;;;;;;;322.58;87.90;;;18.10;99.90;;;;;;5052205;28;20040;-62
2022/08/18 02:37:17;;;;;;;261.33;87.57;;;18.20;99.90;;;;;;5051824;28;20025;-63
2022/08/18 02:39:43;;;;;;;212.13;88.35;;;18.20;99.90;;;;;;5051763;28;20033;-62
2022/08/18 02:42:08;;;;;;;326.65;91.95;;;18.30;99.90;;;;;;5051326;28;20029;-63
2022/08/18 02:44:34;;;;;;;462.98;84.97;;;18.30;99.90;;;;;;5051676;28;20037;-62
2022/08/18 02:47:00;;;;;;;370.67;83.80;;;18.30;99.90;;;;;;5051321;28;20390;-63
2022/08/18 02:49:26;;;;;;;425.55;86.75;;;18.30;99.90;;;;;;5051535;28;20021;-62
2022/08/18 02:51:53;;;;;;;290.55;85.55;;;18.30;99.90;;;;;;5051522;28;20028;-62
2022/08/18 02:54:21;;;;;;;233.73;84.82;;;18.40;99.90;;;;;;5051086;28;20057;-62
2022/08/18 02:56:49;;;;;;;292.88;82.63;;;18.40;99.90;;;;;;5051652;28;20024;-63
2022/08/18 02:59:18;;;;;;;731.03;105.55;;;18.40;99.90;;;;;;5051706;28;20036;-62
2022/08/18 03:01:47;;;;;;;248.93;86.18;;;18.40;99.90;;;;;;5051446;28;20545;-63
2022/08/18 03:04:16;;;;;;;679.22;103.05;;;18.50;99.90;;;;;;5051475;28;20025;-63
2022/08/18 03:06:43;;;;;;;723.28;113.88;;;18.50;99.90;;;;;;5051537;28;20021;-63
2022/08/18 03:09:09;;;;;;;220.18;89.75;;;18.80;99.90;;;;;;5051528;28;20084;-62
2022/08/18 03:11:36;;;;;;;251.75;89.47;;;18.80;99.90;;;;;;5051478;28;20025;-62
2022/08/18 03:14:04;;;;;;;164.95;87.57;;;18.80;99.90;;;;;;5051443;28;20502;-64
2022/08/18 03:16:31;;;;;;;165.77;84.20;;;18.70;99.90;;;;;;5051318;28;20044;-63
2022/08/18 03:18:58;;;;;;;147.73;82.35;;;18.60;99.90;;;;;;5051413;28;20040;-62
2022/08/18 03:21:26;;;;;;;157.98;82.25;;;18.60;99.90;;;;;;5051846;28;20036;-63
2022/08/18 03:23:53;;;;;;;178.35;75.68;;;18.70;99.90;;;;;;5051222;28;20087;-62
2022/08/18 03:26:21;;;;;;;131.55;72.35;;;18.60;99.90;;;;;;5051388;28;20451;-62
2022/08/18 03:28:49;;;;;;;116.00;69.18;;;18.50;99.90;;;;;;5051176;28;20138;-63
2022/08/18 03:31:16;;;;;;;113.97;68.72;;;18.50;99.90;;;;;;5051140;28;20523;-62
2022/08/18 03:33:43;;;;;;;115.25;71.75;;;18.40;99.90;;;;;;5054495;28;20061;-63
2022/08/18 03:36:12;;;;;;;126.85;67.65;;;18.40;99.90;;;;;;5055129;28;20366;-61
2022/08/18 03:38:39;;;;;;;120.15;65.28;;;18.30;99.90;;;;;;5055342;28;20057;-63
2022/08/18 03:41:07;;;;;;;117.15;65.75;;;18.30;99.90;;;;;;5054717;28;20021;-62
2022/08/18 03:43:33;;;;;;;111.82;63.33;;;18.30;99.90;;;;;;5055475;28;20155;-62
2022/08/18 03:46:05;;;;;;;102.95;63.75;;;18.30;99.90;;;;;;5054649;28;20103;-63
2022/08/18 03:48:34;;;;;;;114.90;66.10;;;18.20;99.90;;;;;;5055136;28;20044;-62
2022/08/18 03:51:06;;;;;;;121.68;64.88;;;18.20;99.90;;;;;;5054721;28;20028;-63
2022/08/18 03:53:33;;;;;;;109.03;64.55;;;18.20;99.90;;;;;;5054902;28;20025;-62
2022/08/18 03:55:59;;;;;;;468.77;74.40;;;18.20;99.90;;;;;;5054672;28;20024;-63
2022/08/18 03:58:26;;;;;;;675.60;92.32;;;18.10;99.90;;;;;;5054613;28;20068;-63
2022/08/18 04:00:52;;;;;;;211.32;77.47;;;18.30;99.90;;;;;;5054533;28;20163;-63
2022/08/18 04:03:18;;;;;;;162.82;79.00;;;18.40;99.90;;;;;;5053019;28;20123;-63
2022/08/18 04:05:44;;;;;;;239.30;83.55;;;18.40;99.90;;;;;;5053135;28;20017;-63
2022/08/18 04:08:10;;;;;;;137.45;77.65;;;18.50;99.90;;;;;;5054740;28;20552;-63
2022/08/18 04:10:36;;;;;;;103.57;68.03;;;18.40;99.90;;;;;;5054085;28;20033;-63
2022/08/18 04:13:04;;;;;;;92.30;66.35;;;18.30;99.90;;;;;;5054068;28;20127;-62
2022/08/18 04:15:30;;;;;;;90.45;65.00;;;18.20;99.90;;;;;;5053832;28;20162;-62
2022/08/18 04:18:03;;;;;;;83.35;64.53;;;18.20;99.90;;;;;;5054622;28;20032;-63
2022/08/18 04:20:31;;;;;;;85.40;64.10;;;18.10;99.90;;;;;;5052580;28;20516;-62
2022/08/18 04:22:57;;;;;;;92.05;62.25;;;18.10;99.90;;;;;;5054482;28;20028;-63
2022/08/18 04:25:22;;;;;;;120.80;64.53;;;18.00;99.90;;;;;;5053896;28;20466;-62
2022/08/18 04:27:48;;;;;;;121.32;65.45;;;18.10;99.90;;;;;;5054104;28;20025;-62
2022/08/18 04:30:14;;;;;;;331.38;65.28;;;18.10;99.90;;;;;;5054143;28;20025;-64
2022/08/18 04:32:39;;;;;;;204.43;63.17;;;18.00;99.90;;;;;;5053711;28;20174;-62
2022/08/18 04:35:06;;;;;;;120.35;63.33;;;18.00;99.90;;;;;;5053980;28;20037;-63
2022/08/18 04:37:31;;;;;;;173.50;60.10;;;18.10;99.90;;;;;;5054011;28;20466;-62
2022/08/18 04:39:58;;;;;;;86.03;61.97;;;18.00;99.90;;;;;;5053567;28;20025;-62
2022/08/18 04:42:24;;;;;;;131.20;61.40;;;18.00;99.90;;;;;;5053299;28;20123;-62
2022/08/18 04:44:50;;;;;;;236.05;63.33;;;18.00;99.90;;;;;;5051300;28;20021;-62
2022/08/18 04:47:16;;;;;;;354.85;66.80;;;17.90;99.90;;;;;;5053234;28;20033;-62
2022/08/18 04:49:43;;;;;;;608.40;81.25;;;18.00;99.90;;;;;;5053711;28;20032;-61
2022/08/18 04:54:53;;;;;;;318.95;61.33;;;18.10;99.90;;;;;;5053474;28;20509;-61
2022/08/18 04:57:20;;;;;;;150.57;55.25;;;18.00;99.90;;;;;;5053166;28;20132;-61
2022/08/18 04:59:48;;;;;;;312.95;56.67;;;17.90;99.90;;;;;;5053042;28;20045;-61
2022/08/18 05:02:15;;;;;;;210.35;58.95;;;17.80;99.90;;;;;;5052827;28;20136;-61
2022/08/18 05:04:45;;;;;;;410.20;66.40;;;17.80;99.90;;;;;;5053032;28;20470;-61
2022/08/18 05:07:12;;;;;;;198.80;55.03;;;17.70;99.90;;;;;;5052982;28;20024;-61
2022/08/18 05:09:40;;;;;;;223.05;56.83;;;17.70;99.90;;;;;;5053172;28;20393;-61
2022/08/18 05:12:07;;;;;;;125.68;52.45;;;17.60;99.90;;;;;;5052879;28;20489;-62
2022/08/18 05:14:34;;;;;;;112.47;47.72;;;17.60;99.90;;;;;;5052654;28;20389;-62
2022/08/18 05:17:00;;;;;;;186.95;52.30;;;17.50;99.90;;;;;;5051526;28;20071;-63
2022/08/18 05:19:26;;;;;;;127.50;56.47;;;17.20;99.90;;;;;;5051435;28;20033;-63
2022/08/18 05:21:54;;;;;;;115.88;54.13;;;17.30;99.90;;;;;;5052782;28;20367;-63
2022/08/18 05:24:20;;;;;;;128.13;55.00;;;17.40;99.90;;;;;;5052385;28;20040;-62
2022/08/18 05:26:47;;;;;;;99.50;50.45;;;17.40;99.90;;;;;;5051201;28;20113;-62
2022/08/18 05:29:14;;;;;;;110.32;52.00;;;17.40;99.90;;;;;;5053293;28;20028;-63
2022/08/18 05:31:41;;;;;;;92.53;51.72;;;17.30;99.90;;;;;;5051199;28;20056;-63
2022/08/18 05:34:07;;;;;;;139.52;52.85;;;17.40;99.90;;;;;;5052379;28;20490;-62
2022/08/18 05:36:45;;;;;;;102.82;53.03;;;17.40;99.90;;;;;;5052384;28;20438;-62
2022/08/18 05:39:23;;;;;;;188.02;54.03;;;17.50;99.90;;;;;;5052539;28;20033;-62
2022/08/18 05:41:52;;;;;;;181.60;53.30;;;17.60;99.90;;;;;;5052298;28;20025;-62
2022/08/18 05:44:26;;;;;;;115.78;45.38;;;17.60;99.90;;;;;;5052010;28;20032;-62
2022/08/18 05:46:58;;;;;;;414.92;56.30;;;17.50;99.90;;;;;;5052320;28;20021;-62
2022/08/18 05:49:26;;;;;;;306.20;55.25;;;17.40;99.90;;;;;;5052418;28;20022;-62
2022/08/18 05:51:59;;;;;;;272.27;56.45;;;17.50;99.90;;;;;;5052093;28;20047;-62
2022/08/18 05:57:20;;;;;;;252.13;57.00;;;17.80;99.90;;;;;;5052290;28;20064;-62
2022/08/18 05:59:47;;;;;;;175.52;53.90;;;18.10;99.90;;;;;;5052092;28;20383;-62
2022/08/18 06:02:35;;;;;;;117.28;54.08;;;18.20;99.90;;;;;;5051768;28;20065;-62
2022/08/18 06:05:12;;;;;;;268.02;53.30;;;18.20;99.90;;;;;;5051764;28;20029;-62
2022/08/18 06:07:54;;;;;;;122.53;55.30;;;18.40;99.90;;;;;;5052080;28;20025;-63
2022/08/18 06:10:21;;;;;;;103.88;55.80;;;18.50;99.90;;;;;;5051778;28;20029;-61
2022/08/18 06:12:52;;;;;;;99.00;50.40;;;18.70;99.90;;;;;;5051939;28;20021;-62
2022/08/18 06:15:44;;;;;;;88.68;48.08;;;18.60;99.90;;;;;;5051909;28;20410;-63
2022/08/18 06:18:13;;;;;;;143.63;49.90;;;18.50;99.90;;;;;;5051898;28;20105;-62
2022/08/18 06:20:51;;;;;;;114.72;49.95;;;18.50;99.90;;;;;;5051442;28;20393;-62
2022/08/18 06:23:27;;;;;;;76.13;49.20;;;18.70;99.90;;;;;;5051276;28;20501;-62
2022/08/18 06:26:20;;;;;;;76.32;50.13;;;18.60;99.90;;;;;;5051427;28;20032;-62
2022/08/18 06:29:12;;;;;;;66.32;49.45;;;18.50;99.90;;;;;;5051601;28;20025;-62
2022/08/18 06:31:46;;;;;;;59.80;47.93;;;18.60;99.90;;;;;;5051320;28;20032;-62
2022/08/18 06:34:28;;;;;;;57.85;45.50;;;18.80;99.90;;;;;;5051183;28;20033;-62
2022/08/18 06:37:05;;;;;;;60.83;42.73;;;18.90;99.90;;;;;;5051209;28;20146;-62
2022/08/18 06:39:40;;;;;;;59.30;43.35;;;19.00;99.90;;;;;;5051372;28;20398;-62
2022/08/18 06:42:06;;;;;;;46.67;41.70;;;19.10;99.90;;;;;;5051227;28;20017;-62
2022/08/18 06:44:50;;;;;;;43.20;38.53;;;19.30;99.90;;;;;;5051265;28;20500;-62
2022/08/18 06:47:43;;;;;;;45.30;40.35;;;19.40;99.90;;;;;;5051345;28;20505;-62
2022/08/18 06:50:31;;;;;;;43.55;38.70;;;19.50;99.90;;;;;;5051162;28;20104;-62
2022/08/18 06:53:00;;;;;;;44.60;39.80;;;19.40;99.90;;;;;;5051072;28;20025;-62
2022/08/18 06:55:40;;;;;;;46.33;41.40;;;19.20;99.90;;;;;;5050818;28;20025;-62
2022/08/18 06:58:29;;;;;;;64.00;40.60;;;19.40;99.90;;;;;;5050852;28;20696;-62
2022/08/18 07:01:03;;;;;;;51.90;42.05;;;19.50;99.90;;;;;;5050747;28;20336;-62
2022/08/18 07:03:35;;;;;;;47.58;42.20;;;19.60;99.90;;;;;;5050903;28;20025;-63
2022/08/18 07:06:22;;;;;;;50.90;44.27;;;19.50;99.90;;;;;;5050642;28;20052;-62
2022/08/18 07:08:52;;;;;;;53.30;43.78;;;19.40;99.90;;;;;;5049552;28;20043;-62
2022/08/18 07:11:31;;;;;;;50.88;43.08;;;19.90;99.90;;;;;;5050802;28;20112;-63
2022/08/18 07:14:29;;;;;;;55.47;42.67;;;20.00;99.90;;;;;;5050687;28;20028;-62
2022/08/18 07:17:09;;;;;;;65.22;44.33;;;20.00;99.90;;;;;;5050779;28;20033;-62
2022/08/18 07:19:35;;;;;;;60.53;45.33;;;20.10;99.90;;;;;;5051014;28;20033;-61
2022/08/18 07:22:11;;;;;;;50.65;44.20;;;20.20;99.90;;;;;;5049608;28;20464;-62
2022/08/18 07:24:41;;;;;;;52.60;43.78;;;20.40;99.90;;;;;;5050923;28;20053;-61
2022/08/18 07:27:20;;;;;;;50.10;43.75;;;20.40;99.90;;;;;;5051079;28;20096;-61
2022/08/18 07:30:12;;;;;;;54.03;44.30;;;20.50;99.90;;;;;;5050921;28;20086;-61
2022/08/18 07:32:46;;;;;;;57.63;43.80;;;20.80;99.90;;;;;;5050686;28;20106;-62
2022/08/18 07:35:17;;;;;;;50.38;44.33;;;20.80;99.90;;;;;;5050532;28;20071;-61
2022/08/18 07:38:12;;;;;;;48.67;42.85;;;20.60;99.90;;;;;;5050776;28;20425;-62
2022/08/18 07:40:44;;;;;;;45.13;40.22;;;21.10;99.90;;;;;;5050493;28;20028;-62
2022/08/18 07:43:32;;;;;;;43.88;39.08;;;21.90;99.90;;;;;;5050931;28;20035;-62
2022/08/18 07:46:09;;;;;;;43.65;39.05;;;23.50;99.90;;;;;;5049658;28;20025;-63
2022/08/18 07:48:34;;;;;;;44.83;38.42;;;25.00;99.90;;;;;;5050718;28;20025;-62
2022/08/18 07:51:12;;;;;;;44.20;39.47;;;25.90;99.90;;;;;;5050319;28;20032;-62
2022/08/18 07:53:49;;;;;;;48.05;41.58;;;26.40;99.90;;;;;;5050733;28;20048;-62
2022/08/18 07:56:42;;;;;;;47.72;42.08;;;26.30;99.90;;;;;;5050710;28;20659;-63
2022/08/18 07:59:22;;;;;;;48.28;42.85;;;25.70;99.90;;;;;;5050483;28;20049;-63
2022/08/18 08:02:28;;;;;;;46.50;40.90;;;25.20;99.90;;;;;;5050446;28;20105;-63
2022/08/18 08:05:04;;;;;;;44.25;39.55;;;25.10;99.90;;;;;;5050539;28;20025;-63
2022/08/18 08:07:39;;;;;;;41.75;37.35;;;26.30;99.90;;;;;;5050062;28;20087;-64
2022/08/18 08:10:17;;;;;;;42.22;37.83;;;27.00;99.90;;;;;;5050542;28;20512;-63
2022/08/18 08:12:53;;;;;;;42.97;38.17;;;28.30;99.90;;;;;;5050372;28;20402;-64
2022/08/18 08:15:22;;;;;;;41.72;37.22;;;28.30;99.90;;;;;;5050302;28;20053;-63
2022/08/18 08:18:17;;;;;;;40.67;36.58;;;28.50;99.90;;;;;;5050298;28;20037;-63
2022/08/18 08:20:54;;;;;;;39.53;35.33;;;28.20;99.90;;;;;;5053367;28;20025;-61
2022/08/18 08:23:27;;;;;;;39.22;35.22;;;28.70;99.90;;;;;;5053548;28;20029;-63
2022/08/18 08:26:08;;;;;;;38.13;34.33;;;29.00;99.90;;;;;;5052344;28;20359;-63
2022/08/18 08:29:05;;;;;;;39.55;34.33;;;28.20;99.90;;;;;;5048216;28;20059;-64
2022/08/18 08:32:08;;;;;;;39.92;35.72;;;27.20;99.90;;;;;;5050646;28;20396;-63
2022/08/18 08:34:51;;;;;;;42.30;37.88;;;26.50;99.90;;;;;;5052121;28;20029;-63
2022/08/18 08:37:55;;;;;;;41.40;37.05;;;26.40;99.90;;;;;;5048429;28;20025;-63
2022/08/18 08:40:40;;;;;;;41.78;37.47;;;25.70;99.90;;;;;;5041518;28;20148;-63
2022/08/18 08:43:11;;;;;;;45.70;40.72;;;25.40;99.90;;;;;;5052604;28;20029;-64
2022/08/18 08:46:04;;;;;;;46.97;40.85;;;25.30;99.90;;;;;;5037662;28;20017;-63
2022/08/18 08:48:33;;;;;;;44.50;38.80;;;25.50;99.90;;;;;;5041412;28;20116;-64
2022/08/18 08:51:10;;;;;;;60.72;40.17;;;25.70;99.90;;;;;;5035429;28;20037;-64
2022/08/18 08:53:52;;;;;;;44.15;39.45;;;27.30;99.90;;;;;;5040168;28;20033;-64
2022/08/18 08:56:22;;;;;;;42.15;37.83;;;27.70;99.90;;;;;;5053200;28;20075;-64
2022/08/18 08:58:56;;;;;;;41.00;36.75;;;27.60;99.90;;;;;;5051263;28;20048;-65
2022/08/18 09:01:49;;;;;;;42.53;38.08;;;27.40;99.90;;;;;;5053224;28;20102;-64
2022/08/18 09:04:52;;;;;;;41.47;37.17;;;27.20;99.90;;;;;;5052919;28;20493;-64
2022/08/18 09:07:46;;;;;;;39.28;35.28;;;27.00;99.90;;;;;;5046709;28;20390;-64
2022/08/18 09:10:49;;;;;;;38.88;34.65;;;26.20;99.90;;;;;;5053267;28;20025;-64
2022/08/18 09:13:30;;;;;;;35.65;31.88;;;26.10;99.90;;;;;;5045700;28;20109;-64
2022/08/18 09:16:14;;;;;;;35.63;31.77;;;26.90;99.90;;;;;;5052467;28;20028;-64
2022/08/18 09:18:58;;;;;;;32.03;27.63;;;28.00;99.90;;;;;;5036703;28;20104;-65
2022/08/18 09:21:37;;;;;;;32.47;27.70;;;29.40;99.90;;;;;;5032030;28;20492;-65
2022/08/18 09:24:09;;;;;;;33.63;26.98;;;30.10;99.90;;;;;;5043746;28;20025;-65
2022/08/18 09:27:01;;;;;;;31.70;28.33;;;30.10;99.90;;;;;;5032481;28;20520;-66
2022/08/18 09:29:53;;;;;;;31.50;28.27;;;29.30;99.90;;;;;;5023896;28;20506;-65
2022/08/18 09:32:18;;;;;;;33.65;30.13;;;28.70;99.90;;;;;;5032459;28;20029;-64
2022/08/18 09:35:06;;;;;;;32.80;28.65;;;27.70;99.90;;;;;;5052795;28;20100;-64
2022/08/18 09:41:30;;;;;;;31.67;28.48;;;27.10;99.90;;;;;;5052029;28;20151;-64
2022/08/18 09:44:09;;;;;;;34.83;31.23;;;25.80;99.90;;;;;;5032184;28;20039;-64
2022/08/18 09:46:45;;;;;;;33.92;30.50;;;26.50;99.90;;;;;;5030878;28;20363;-66
2022/08/18 09:49:25;;;;;;;30.83;27.58;;;27.70;99.90;;;;;;5035381;28;20017;-64
2022/08/18 09:51:56;;;;;;;30.50;27.33;;;28.70;99.90;;;;;;5040986;28;20029;-64
2022/08/18 09:54:29;;;;;;;27.60;24.90;;;28.60;99.90;;;;;;5045613;28;20065;-64
2022/08/18 09:57:02;;;;;;;28.60;25.70;;;28.10;99.90;;;;;;5051949;28;20055;-63
2022/08/18 09:59:33;;;;;;;27.38;24.48;;;27.70;99.90;;;;;;5052044;28;20080;-64
2022/08/18 10:02:05;;;;;;;26.75;23.92;;;28.10;99.90;;;;;;5050101;28;20029;-64
2022/08/18 10:04:31;;;;;;;;;;;29.20;99.90;;;;;;5052380;28;20425;-64
2022/08/18 10:07:15;;;;;;;22.30;20.17;;;29.90;99.90;;;;;;5050284;28;19920;-64
2022/08/18 10:10:13;;;;;;;21.17;19.10;;;29.20;99.90;;;;;;5049885;28;20029;-65
2022/08/18 10:13:06;;;;;;;22.40;20.10;;;29.70;99.90;;;;;;5036362;28;20516;-66
2022/08/18 10:15:50;;;;;;;18.67;17.00;;;30.80;99.90;;;;;;5052055;28;20021;-65
2022/08/18 10:18:39;;;;;;;15.48;14.18;;;31.70;99.80;;;;;;5051803;28;20033;-66
2022/08/18 10:21:19;;;;;;;16.55;15.00;;;31.40;99.50;;;;;;5049168;28;20051;-65
2022/08/18 10:23:48;;;;;;;19.65;17.55;;;31.00;99.20;;;;;;5050301;28;20087;-65
2022/08/18 10:26:29;;;;;;;16.20;14.70;;;30.80;99.60;;;;;;5051641;28;20020;-65
2022/08/18 10:29:05;;;;;;;12.68;11.45;;;30.90;98.90;;;;;;5049975;28;20023;-65
2022/08/18 10:31:57;;;;;;;10.38;9.27;;;29.90;99.90;;;;;;5051510;28;20071;-65
2022/08/18 10:34:44;;;;;;;8.32;7.63;;;30.70;98.60;;;;;;5046430;28;20056;-65
2022/08/18 10:37:28;;;;;;;10.98;10.02;;;31.30;96.00;;;;;;5031319;28;20033;-65
2022/08/18 10:40:22;;;;;;;14.27;12.98;;;31.50;97.40;;;;;;5045301;28;20039;-66
2022/08/18 10:43:06;;;;;;;14.98;13.68;;;31.80;96.10;;;;;;5049478;28;20075;-66
2022/08/18 10:45:46;;;;;;;15.65;14.35;;;32.80;95.40;;;;;;5050118;28;20420;-65
2022/08/18 10:48:27;;;;;;;16.10;14.50;;;33.00;93.20;;;;;;5046157;28;20037;-66
2022/08/18 10:51:10;;;;;;;16.85;14.68;;;33.30;93.30;;;;;;5032130;28;20021;-66
2022/08/18 10:54:32;;;;;;;16.52;14.93;;;32.40;93.90;;;;;;5030672;28;20394;-65
2022/08/18 10:57:18;;;;;;;18.08;16.20;;;31.10;97.40;;;;;;5014118;28;20034;-64
2022/08/18 10:59:58;;;;;;;17.65;15.95;;;30.30;99.80;;;;;;4992544;28;20533;-64
2022/08/18 11:02:45;;;;;;;18.55;16.55;;;29.80;99.90;;;;;;5026963;28;20124;-64
2022/08/18 11:05:18;;;;;;;19.15;17.20;;;29.00;99.90;;;;;;5048398;28;20072;-64
2022/08/18 11:07:48;;;;;;;21.23;19.23;;;28.60;99.90;;;;;;5050943;28;20032;-64
2022/08/18 11:10:33;;;;;;;22.25;20.15;;;28.00;99.90;;;;;;5050827;28;20021;-64
2022/08/18 11:13:41;;;;;;;22.23;20.23;;;27.90;99.90;;;;;;5049248;28;20040;-64
2022/08/18 11:16:17;;;;;;;20.88;18.98;;;28.10;99.90;;;;;;5047586;28;20036;-65
2022/08/18 11:18:44;;;;;;;22.42;20.40;;;28.70;99.90;;;;;;5049577;28;20044;-65
2022/08/18 11:21:24;;;;;;;21.08;19.05;;;29.90;99.90;;;;;;5050336;28;20166;-65
2022/08/18 11:24:13;;;;;;;21.73;19.70;;;30.80;99.80;;;;;;5048993;28;20389;-64
2022/08/18 11:27:01;;;;;;;22.40;20.40;;;29.50;99.90;;;;;;5031988;28;20030;-64
2022/08/18 11:29:40;;;;;;;21.08;18.85;;;28.50;99.90;;;;;;5043079;28;20044;-64
2022/08/18 11:32:16;;;;;;;23.27;20.83;;;28.40;99.90;;;;;;5031983;28;20398;-65
2022/08/18 11:34:50;;;;;;;22.52;20.52;;;28.60;99.90;;;;;;5047921;28;20386;-64
2022/08/18 11:37:29;;;;;;;22.80;20.70;;;28.90;99.90;;;;;;5049398;28;20414;-65
2022/08/18 11:39:58;;;;;;;21.65;19.75;;;29.50;99.90;;;;;;5048498;28;20049;-63
2022/08/18 11:42:33;;;;;;;22.27;20.17;;;30.40;99.90;;;;;;5046536;28;20024;-64
2022/08/18 11:45:21;;;;;;;20.58;18.60;;;30.40;99.40;;;;;;5047121;28;20381;-65
2022/08/18 11:48:14;;;;;;;19.38;17.67;;;31.70;97.70;;;;;;5043794;28;20031;-65
2022/08/18 11:50:55;;;;;;;17.63;15.95;;;32.70;94.40;;;;;;5047991;28;20025;-65
2022/08/18 11:53:45;;;;;;;19.70;17.90;;;31.20;95.90;;;;;;5039600;28;20061;-65
2022/08/18 11:56:24;;;;;;;21.13;19.10;;;29.90;98.80;;;;;;5052615;28;20036;-63
2022/08/18 11:59:27;;;;;;;21.63;19.63;;;29.30;99.90;;;;;;5052849;28;20081;-66
2022/08/18 12:01:55;;;;;;;21.95;19.90;;;29.00;99.90;;;;;;5049836;28;20155;-63
2022/08/18 12:04:27;;;;;;;22.67;20.58;;;28.80;99.90;;;;;;5049825;28;20489;-64
2022/08/18 12:06:58;;;;;;;25.00;22.70;;;29.00;99.90;;;;;;5052489;28;20419;-63
2022/08/18 12:09:38;;;;;;;23.20;20.93;;;28.90;99.90;;;;;;5052035;28;20023;-63
2022/08/18 12:12:21;;;;;;;22.10;20.10;;;28.30;99.90;;;;;;5049293;28;20033;-64
2022/08/18 12:15:12;;;;;;;24.38;22.08;;;27.90;99.90;;;;;;5043274;28;20052;-63
2022/08/18 12:17:40;;;;;;;24.80;22.40;;;27.90;99.90;;;;;;5051118;28;20033;-64
2022/08/18 12:20:07;;;;;;;23.02;20.83;;;28.80;99.90;;;;;;5051069;28;20087;-64
2022/08/18 12:22:35;;;;;;;22.73;20.63;;;30.20;99.90;;;;;;5049821;28;20104;-64
2022/08/18 12:25:04;;;;;;;23.98;21.50;;;30.30;99.50;;;;;;5052394;28;20329;-64
2022/08/18 12:27:30;;;;;;;18.23;16.60;;;31.20;97.90;;;;;;5052673;28;20148;-64
2022/08/18 12:29:57;;;;;;;17.13;15.52;;;32.20;95.70;;;;;;5047838;28;20056;-65
2022/08/18 12:32:26;;;;;;;21.05;19.00;;;32.70;94.00;;;;;;5047166;28;20390;-65
2022/08/18 12:34:51;;;;;;;18.30;16.52;;;33.00;92.50;;;;;;5051052;28;20051;-65
2022/08/18 12:37:21;;;;;;;20.02;18.23;;;32.30;92.50;;;;;;5046434;28;20021;-65
2022/08/18 12:39:47;;;;;;;19.80;17.80;;;31.50;94.10;;;;;;5044363;28;20734;-65
2022/08/18 12:42:13;;;;;;;18.23;16.73;;;31.20;93.90;;;;;;5051689;28;20100;-65
2022/08/18 12:44:40;;;;;;;19.88;18.08;;;30.80;94.60;;;;;;5049964;28;20021;-64
2022/08/18 12:47:11;;;;;;;20.00;18.02;;;30.40;96.10;;;;;;5051877;28;20087;-64
2022/08/18 12:49:37;;;;;;;19.47;17.70;;;31.10;95.00;;;;;;5047683;28;20037;-65
2022/08/18 12:52:03;;;;;;;18.17;16.42;;;31.70;94.30;;;;;;5052221;28;20079;-65
2022/08/18 12:54:31;;;;;;;20.00;18.05;;;32.60;92.50;;;;;;5049737;28;20052;-65
2022/08/18 12:56:57;;;;;;;20.27;18.55;;;32.60;92.50;;;;;;5051730;28;20076;-65
2022/08/18 12:59:23;;;;;;;18.40;16.63;;;32.50;92.10;;;;;;5051229;28;20449;-65
2022/08/18 13:01:49;;;;;;;19.33;17.55;;;32.10;93.20;;;;;;5046809;28;20033;-65
2022/08/18 13:04:15;;;;;;;17.30;15.77;;;31.40;94.20;;;;;;5050864;28;20406;-65
2022/08/18 13:06:52;;;;;;;15.20;13.70;;;30.90;94.40;;;;;;5051153;28;20021;-65
2022/08/18 13:09:19;;;;;;;14.65;13.25;;;30.50;94.50;;;;;;5049588;28;20037;-64
2022/08/18 13:11:45;;;;;;;14.40;13.00;;;31.00;94.30;;;;;;5052491;28;20478;-65